createdAt,value
2023-10-11T00:00:57.905Z,100331.98
2023-10-11T00:03:03.573Z,100337.39
2023-10-11T00:05:09.069Z,100333.55
2023-10-11T00:07:14.582Z,100332.05
2023-10-11T00:09:20.365Z,100329.78
2023-10-11T00:11:26.211Z,100321.94
2023-10-11T00:13:31.867Z,100323
2023-10-11T00:15:37.428Z,100321.3
2023-10-11T00:17:43.080Z,100326.99
2023-10-11T00:19:48.866Z,100321.27
2023-10-11T00:21:54.326Z,100311.1
2023-10-11T00:24:00.019Z,100303.27
2023-10-11T00:26:05.526Z,100310.33
2023-10-11T00:28:10.958Z,100302.14
2023-10-11T00:30:16.380Z,100300.56
2023-10-11T00:32:21.811Z,100299.66
2023-10-11T00:34:27.409Z,100297.34
2023-10-11T00:36:32.934Z,100298.54
2023-10-11T00:38:38.552Z,100298.62
2023-10-11T00:40:43.908Z,100296.64
2023-10-11T00:42:49.254Z,100293.16
2023-10-11T00:44:54.645Z,100296.81
2023-10-11T00:47:00.393Z,100297.91
2023-10-11T00:49:07.305Z,100295.77
2023-10-11T00:51:12.981Z,100296.73
2023-10-11T00:53:18.389Z,100295.27
2023-10-11T00:55:23.696Z,100287.97
2023-10-11T00:57:29.230Z,100288.22
2023-10-11T00:59:34.607Z,100283.99
2023-10-11T01:01:40.338Z,100279.84
2023-10-11T01:03:46.499Z,100282.56
2023-10-11T01:05:52.289Z,100286.2
2023-10-11T01:07:57.812Z,100282.33
2023-10-11T01:10:03.405Z,100274.9
2023-10-11T01:12:08.832Z,100271.79
2023-10-11T01:14:14.556Z,100269.98
2023-10-11T01:16:20.495Z,100271.12
2023-10-11T01:18:26.331Z,100270.02
2023-10-11T01:20:32.082Z,100269.17
2023-10-11T01:22:37.527Z,100269.24
2023-10-11T01:24:42.967Z,100265.45
2023-10-11T01:26:48.483Z,100261.47
2023-10-11T01:28:54.045Z,100265.35
2023-10-11T01:30:59.434Z,100262.22
2023-10-11T01:33:05.091Z,100259.8
2023-10-11T01:35:10.528Z,100256.36
2023-10-11T01:37:16.010Z,100254.13
2023-10-11T01:39:21.807Z,100257.42
2023-10-11T01:41:27.080Z,100258.52
2023-10-11T01:43:32.345Z,100259.3
2023-10-11T01:45:38.122Z,100252.48
2023-10-11T01:47:43.713Z,100259.7
2023-10-11T01:49:49.386Z,100262.54
2023-10-11T01:51:55.026Z,100264.03
2023-10-11T01:54:00.578Z,100264.09
2023-10-11T01:56:41.876Z,100267.81
2023-10-11T01:58:47.437Z,100267.06
2023-10-11T02:00:52.772Z,100265.52
2023-10-11T02:02:58.399Z,100260.89
2023-10-11T02:05:04.052Z,100261.13
2023-10-11T02:07:09.660Z,100257.78
2023-10-11T02:09:15.082Z,100258.64
2023-10-11T02:11:20.785Z,100254.72
2023-10-11T02:13:26.132Z,100251.73
2023-10-11T02:15:31.530Z,100250.02
2023-10-11T02:17:36.868Z,100253.53
2023-10-11T02:19:42.406Z,100253.3
2023-10-11T02:21:47.845Z,100245.77
2023-10-11T02:23:53.395Z,100248.5
2023-10-11T02:25:58.731Z,100249.59
2023-10-11T02:28:04.259Z,100247.75
2023-10-11T02:30:09.731Z,100252.39
2023-10-11T02:32:15.245Z,100246.3
2023-10-11T02:34:20.808Z,100244.33
2023-10-11T02:36:26.329Z,100241.37
2023-10-11T02:38:31.778Z,100242.73
2023-10-11T02:40:37.211Z,100241.58
2023-10-11T02:42:42.537Z,100243.42
2023-10-11T02:44:47.916Z,100239.33
2023-10-11T02:46:53.527Z,100235.83
2023-10-11T02:48:58.860Z,100236.74
2023-10-11T02:51:04.444Z,100233.34
2023-10-11T02:53:09.956Z,100236.5
2023-10-11T02:55:15.374Z,100236.84
2023-10-11T02:57:21.745Z,100237.69
2023-10-11T02:59:27.259Z,100233.64
2023-10-11T03:01:32.923Z,100231.8
2023-10-11T03:03:38.613Z,100231.91
2023-10-11T03:05:44.541Z,100232.17
2023-10-11T03:07:49.881Z,100235.2
2023-10-11T03:09:55.913Z,100231.96
2023-10-11T03:12:01.594Z,100233.19
2023-10-11T03:14:07.114Z,100236.96
2023-10-11T03:16:12.481Z,100233.05
2023-10-11T03:18:18.184Z,100228.05
2023-10-11T03:20:24.089Z,100232.31
2023-10-11T03:22:29.617Z,100231.11
2023-10-11T03:24:35.139Z,100225.77
2023-10-11T03:26:40.601Z,100224.66
2023-10-11T03:28:46.237Z,100221.63
2023-10-11T03:30:51.685Z,100226.22
2023-10-11T03:32:57.502Z,100225.91
2023-10-11T03:35:03.031Z,100221.97
2023-10-11T03:37:08.410Z,100217.09
2023-10-11T03:39:13.738Z,100218.59
2023-10-11T03:41:19.184Z,100214.09
2023-10-11T03:43:24.777Z,100217.53
2023-10-11T03:45:30.782Z,100211.63
2023-10-11T03:47:36.156Z,100210.81
2023-10-11T03:49:41.664Z,100205.34
2023-10-11T03:51:46.987Z,100204.59
2023-10-11T03:53:52.405Z,100199.2
2023-10-11T03:55:57.974Z,100204.85
2023-10-11T03:58:03.805Z,100199.63
2023-10-11T04:00:09.486Z,100201.54
2023-10-11T04:02:15.121Z,100203.78
2023-10-11T04:04:20.894Z,100202.38
2023-10-11T04:06:26.714Z,100201.67
2023-10-11T04:08:32.056Z,100202.69
2023-10-11T04:10:37.602Z,100197.91
2023-10-11T04:12:42.939Z,100200.51
2023-10-11T04:14:48.443Z,100199.41
2023-10-11T04:16:53.705Z,100196.17
2023-10-11T04:18:59.212Z,100197.61
2023-10-11T04:21:04.970Z,100193.67
2023-10-11T04:23:10.417Z,100190.84
2023-10-11T04:25:15.887Z,100187.63
2023-10-11T04:27:21.497Z,100195.21
2023-10-11T04:29:27.081Z,100195.31
2023-10-11T04:31:32.703Z,100194.21
2023-10-11T04:33:38.174Z,100193.16
2023-10-11T04:35:43.877Z,100195.26
2023-10-11T04:37:49.286Z,100194.67
2023-10-11T04:39:54.690Z,100192.84
2023-10-11T04:42:00.167Z,100183.02
2023-10-11T04:44:05.760Z,100181.55
2023-10-11T04:46:11.210Z,100181.27
2023-10-11T04:48:16.604Z,100176.22
2023-10-11T04:50:22.403Z,100171.89
2023-10-11T04:52:27.828Z,100168
2023-10-11T04:54:33.286Z,100167.73
2023-10-11T04:56:38.626Z,100171.02
2023-10-11T04:58:44.061Z,100169.5
2023-10-11T05:00:49.687Z,100168.73
2023-10-11T05:02:55.374Z,100169.16
2023-10-11T05:05:01.311Z,100166.08
2023-10-11T05:07:06.876Z,100164.27
2023-10-11T05:09:12.399Z,100163.8
2023-10-11T05:11:17.832Z,100167.38
2023-10-11T05:13:23.175Z,100166.08
2023-10-11T05:15:28.624Z,100166.2
2023-10-11T05:17:34.067Z,100170.28
2023-10-11T05:19:39.694Z,100174.91
2023-10-11T05:21:51.696Z,100179.19
2023-10-11T05:24:08.756Z,100185.28
2023-10-11T05:26:14.492Z,100186.54
2023-10-11T05:28:20.037Z,100196.12
2023-10-11T05:30:25.599Z,100194.28
2023-10-11T05:32:31.087Z,100190.32
2023-10-11T05:34:36.618Z,100192.27
2023-10-11T05:36:42.263Z,100193.69
2023-10-11T05:38:47.816Z,100189.09
2023-10-11T05:40:53.350Z,100189.81
2023-10-11T05:42:58.831Z,100190.23
2023-10-11T05:45:04.582Z,100189.61
2023-10-11T05:47:10.130Z,100190.54
2023-10-11T05:49:15.638Z,100190.9
2023-10-11T05:51:21.493Z,100190.77
2023-10-11T05:53:27.117Z,100186.52
2023-10-11T05:55:32.761Z,100186.65
2023-10-11T05:57:38.245Z,100182.97
2023-10-11T05:59:43.722Z,100184.77
2023-10-11T06:01:49.049Z,100182.79
2023-10-11T06:03:54.875Z,100184.61
2023-10-11T06:06:00.707Z,100185.95
2023-10-11T06:08:06.552Z,100186.16
2023-10-11T06:10:12.208Z,100184.06
2023-10-11T06:12:17.768Z,100182.4
2023-10-11T06:14:23.734Z,100186.71
2023-10-11T06:16:31.337Z,100186.13
2023-10-11T06:18:36.938Z,100183.19
2023-10-11T06:20:42.547Z,100182.61
2023-10-11T06:22:48.084Z,100182.85
2023-10-11T06:24:54.342Z,100186.59
2023-10-11T06:26:59.829Z,100178.02
2023-10-11T06:29:05.530Z,100178.2
2023-10-11T06:31:11.363Z,100171.19
2023-10-11T06:33:17.258Z,100170.73
2023-10-11T06:35:22.792Z,100174.52
2023-10-11T06:37:28.210Z,100169.79
2023-10-11T06:39:33.673Z,100171.76
2023-10-11T06:41:39.302Z,100167.39
2023-10-11T06:43:44.687Z,100168.92
2023-10-11T06:45:50.336Z,100175.11
2023-10-11T06:47:56.055Z,100166.87
2023-10-11T06:50:01.592Z,100168.92
2023-10-11T06:52:07.144Z,100168.43
2023-10-11T06:54:12.577Z,100165.24
2023-10-11T06:56:18.039Z,100163.27
2023-10-11T06:58:23.538Z,100172.44
2023-10-11T07:00:29.267Z,100171.91
2023-10-11T07:02:35.525Z,100171.36
2023-10-11T07:04:41.023Z,100170.41
2023-10-11T07:06:46.630Z,100171.21
2023-10-11T07:08:52.409Z,100169.91
2023-10-11T07:10:57.914Z,100170.58
2023-10-11T07:13:03.471Z,100172.75
2023-10-11T07:15:09.317Z,100172
2023-10-11T07:17:14.994Z,100172.61
2023-10-11T07:19:20.509Z,100174.06
2023-10-11T07:21:25.988Z,100168.97
2023-10-11T07:23:31.994Z,100171.02
2023-10-11T07:25:37.444Z,100167.91
2023-10-11T07:27:42.939Z,100159.16
2023-10-11T07:29:52.699Z,100164.16
2023-10-11T07:31:58.535Z,100163.42
2023-10-11T07:34:04.367Z,100158.09
2023-10-11T07:36:10.197Z,100159.73
2023-10-11T07:38:15.929Z,100157.39
2023-10-11T07:40:21.261Z,100159.45
2023-10-11T07:42:26.560Z,100158.86
2023-10-11T07:44:31.946Z,100158.38
2023-10-11T07:46:37.689Z,100153.37
2023-10-11T07:48:42.998Z,100157.34
2023-10-11T07:50:51.612Z,100153.23
2023-10-11T07:52:56.969Z,100154.72
2023-10-11T07:55:03.487Z,100154.98
2023-10-11T07:57:09.117Z,100153.13
2023-10-11T07:59:17.505Z,100155.91
2023-10-11T08:01:23.260Z,100159.47
2023-10-11T08:03:29.447Z,100157.34
2023-10-11T08:05:38.112Z,100160.38
2023-10-11T08:07:43.599Z,100160.59
2023-10-11T08:09:49.190Z,100155.55
2023-10-11T08:11:54.991Z,100154.19
2023-10-11T08:14:01.720Z,100151.31
2023-10-11T08:16:07.348Z,100152.33
2023-10-11T08:18:13.033Z,100156.73
2023-10-11T08:20:18.651Z,100156.64
2023-10-11T08:22:25.172Z,100152.23
2023-10-11T08:24:30.885Z,100151.86
2023-10-11T08:26:36.400Z,100148.88
2023-10-11T08:28:41.962Z,100146.51
2023-10-11T08:30:48.035Z,100140.13
2023-10-11T08:32:56.628Z,100137.25
2023-10-11T08:35:02.015Z,100134.75
2023-10-11T08:37:07.534Z,100131.99
2023-10-11T08:39:13.383Z,100134.02
2023-10-11T08:41:19.018Z,100137.6
2023-10-11T08:43:24.527Z,100142.19
2023-10-11T08:45:30.132Z,100138.2
2023-10-11T08:47:35.684Z,100131.84
2023-10-11T08:49:41.185Z,100130.05
2023-10-11T08:51:46.697Z,100132.8
2023-10-11T08:53:52.463Z,100129.43
2023-10-11T08:55:58.387Z,100128.59
2023-10-11T08:58:03.834Z,100129.23
2023-10-11T09:00:12.610Z,100130.28
2023-10-11T09:02:18.931Z,100130.87
2023-10-11T09:04:24.612Z,100129.99
2023-10-11T09:06:30.427Z,100132.7
2023-10-11T09:08:36.327Z,100130.54
2023-10-11T09:10:42.449Z,100132.72
2023-10-11T09:12:47.755Z,100128.04
2023-10-11T09:14:53.270Z,100127.81
2023-10-11T09:17:01.206Z,100133.34
2023-10-11T09:19:06.853Z,100132.42
2023-10-11T09:21:12.367Z,100127.83
2023-10-11T09:23:17.839Z,100124.92
2023-10-11T09:25:23.347Z,100124.16
2023-10-11T09:27:28.917Z,100121.22
2023-10-11T09:29:34.200Z,100119.91
2023-10-11T09:31:39.717Z,100120.84
2023-10-11T09:33:45.372Z,100121.84
2023-10-11T09:35:50.848Z,100120.2
2023-10-11T09:37:56.506Z,100119.92
2023-10-11T09:40:01.828Z,100120.16
2023-10-11T09:42:07.469Z,100119.83
2023-10-11T09:44:13.368Z,100123.81
2023-10-11T09:46:19.324Z,100124.13
2023-10-11T09:48:25.131Z,100127.52
2023-10-11T09:50:30.859Z,100122.8
2023-10-11T09:52:36.361Z,100128.73
2023-10-11T09:54:42.185Z,100125.85
2023-10-11T09:56:47.746Z,100126.64
2023-10-11T09:58:53.194Z,100128.19
2023-10-11T10:00:58.783Z,100133.47
2023-10-11T10:03:04.599Z,100135.11
2023-10-11T10:05:10.726Z,100138.63
2023-10-11T10:07:16.500Z,100137.55
2023-10-11T10:09:21.990Z,100138.42
2023-10-11T10:11:28.080Z,100146.99
2023-10-11T10:13:33.574Z,100140.81
2023-10-11T10:15:39.193Z,100142.3
2023-10-11T10:17:47.475Z,100138.36
2023-10-11T10:19:53.022Z,100139.55
2023-10-11T10:21:58.762Z,100136.34
2023-10-11T10:24:04.397Z,100136.91
2023-10-11T10:26:09.981Z,100136.1
2023-10-11T10:28:15.573Z,100136.48
2023-10-11T10:30:21.098Z,100130.78
2023-10-11T10:32:26.658Z,100131.41
2023-10-11T10:34:32.592Z,100130.27
2023-10-11T10:36:37.982Z,100128.42
2023-10-11T10:38:43.425Z,100130.38
2023-10-11T10:40:48.845Z,100125.23
2023-10-11T10:42:54.089Z,100127.75
2023-10-11T10:45:01.190Z,100126.94
2023-10-11T10:47:07.727Z,100123.48
2023-10-11T10:49:13.129Z,100120.73
2023-10-11T10:51:18.660Z,100117.29
2023-10-11T10:53:24.365Z,100115.76
2023-10-11T10:55:29.891Z,100116.77
2023-10-11T10:57:35.355Z,100115.3
2023-10-11T10:59:41.158Z,100108.73
2023-10-11T11:01:46.628Z,100110.32
2023-10-11T11:03:52.347Z,100110.74
2023-10-11T11:05:58.474Z,100105.96
2023-10-11T11:08:04.167Z,100102.05
2023-10-11T11:10:09.899Z,100101.39
2023-10-11T11:12:19.072Z,100100.67
2023-10-11T11:14:24.875Z,100098.11
2023-10-11T11:16:30.370Z,100094.53
2023-10-11T11:18:36.218Z,100094.8
2023-10-11T11:20:41.725Z,100102.37
2023-10-11T11:22:50.255Z,100099.09
2023-10-11T11:24:56.208Z,100095.6
2023-10-11T11:27:01.603Z,100097.38
2023-10-11T11:29:07.140Z,100096.03
2023-10-11T11:31:12.573Z,100089.57
2023-10-11T11:33:20.641Z,100086.18
2023-10-11T11:35:26.279Z,100089.34
2023-10-11T11:37:31.712Z,100086.19
2023-10-11T11:39:37.187Z,100084.11
2023-10-11T11:41:42.706Z,100092.28
2023-10-11T11:43:50.389Z,100087.91
2023-10-11T11:45:55.694Z,100087.09
2023-10-11T11:48:01.583Z,100081.63
2023-10-11T11:50:07.361Z,100080.03
2023-10-11T11:52:12.866Z,100081.35
2023-10-11T11:54:19.133Z,100084.04
2023-10-11T11:56:25.215Z,100083.64
2023-10-11T11:58:30.628Z,100079.23
2023-10-11T12:00:39.858Z,100077.22
2023-10-11T12:02:45.903Z,100079.95
2023-10-11T12:04:51.656Z,100073.96
2023-10-11T12:06:58.325Z,100075.59
2023-10-11T12:09:04.205Z,100079.98
2023-10-11T12:11:12.103Z,100076.81
2023-10-11T12:13:22.804Z,100067.89
2023-10-11T12:15:28.431Z,100071
2023-10-11T12:17:34.050Z,100080.31
2023-10-11T12:19:39.882Z,100070.89
2023-10-11T12:21:45.512Z,100070.8
2023-10-11T12:23:51.877Z,100070.02
2023-10-11T12:25:57.524Z,100062.36
2023-10-11T12:28:03.073Z,100058.79
2023-10-11T12:30:11.175Z,100065.45
2023-10-11T12:32:16.766Z,100063.78
2023-10-11T12:34:22.554Z,100061.33
2023-10-11T12:36:28.776Z,100061.52
2023-10-11T12:38:34.488Z,100061.47
2023-10-11T12:40:40.020Z,100053.12
2023-10-11T12:42:45.559Z,100054.05
2023-10-11T12:44:51.579Z,100053.22
2023-10-11T12:46:57.307Z,100056.81
2023-10-11T12:49:03.108Z,100056.94
2023-10-11T12:51:08.675Z,100055.47
2023-10-11T12:53:15.662Z,100048.54
2023-10-11T12:55:21.374Z,100045.13
2023-10-11T12:57:27.157Z,100039.02
2023-10-11T12:59:34.001Z,100040.98
2023-10-11T13:01:39.933Z,100036.89
2023-10-11T13:03:46.201Z,100036.77
2023-10-11T13:05:52.209Z,100029.88
2023-10-11T13:07:58.050Z,100022.12
2023-10-11T13:10:06.627Z,100018.1
2023-10-11T13:12:12.384Z,100020.14
2023-10-11T13:14:18.880Z,100011.09
2023-10-11T13:16:25.248Z,100007.8
2023-10-11T13:18:31.229Z,100007.59
2023-10-11T13:20:36.848Z,100008.12
2023-10-11T13:22:42.420Z,100014.3
2023-10-11T13:24:48.027Z,100005.33
2023-10-11T13:26:53.549Z,100012.98
2023-10-11T13:28:58.874Z,100016.2
2023-10-11T13:31:08.509Z,100018.63
2023-10-11T13:33:14.347Z,100016.67
2023-10-11T13:35:19.922Z,100023.62
2023-10-11T13:37:25.499Z,100019.5
2023-10-11T13:39:30.968Z,100011.93
2023-10-11T13:41:36.419Z,100011.31
2023-10-11T13:43:41.933Z,100003.5
2023-10-11T13:45:47.912Z,99997.11
2023-10-11T13:47:53.482Z,99999.45
2023-10-11T13:49:58.847Z,99993.35
2023-10-11T13:52:04.664Z,99991.11
2023-10-11T13:54:10.348Z,99988.5
2023-10-11T13:56:16.315Z,99997
2023-10-11T13:58:21.772Z,99995.08
2023-10-11T14:00:27.514Z,99989.91
2023-10-11T14:02:33.472Z,100000.77
2023-10-11T14:04:40.436Z,99997.77
2023-10-11T14:06:46.646Z,99995.97
2023-10-11T14:08:52.436Z,99996.38
2023-10-11T14:10:59.035Z,99994.33
2023-10-11T14:13:04.239Z,99993.8
2023-10-11T14:15:09.824Z,99988.69
2023-10-11T14:17:15.180Z,99989.59
2023-10-11T14:19:20.826Z,99986.62
2023-10-11T14:21:26.399Z,99988.09
2023-10-11T14:23:31.777Z,99985.68
2023-10-11T14:25:37.244Z,99981.86
2023-10-11T14:27:42.726Z,99981.91
2023-10-11T14:29:48.235Z,99979.19
2023-10-11T14:31:55.609Z,99980.55
2023-10-11T14:34:01.060Z,99977.2
2023-10-11T14:36:06.690Z,99978.4
2023-10-11T14:38:12.151Z,99975.3
2023-10-11T14:40:18.257Z,99968.86
2023-10-11T14:42:26.708Z,99975.09
2023-10-11T14:44:32.039Z,99973.06
2023-10-11T14:46:37.619Z,99972.47
2023-10-11T14:48:43.019Z,99969.45
2023-10-11T14:50:48.463Z,99972.95
2023-10-11T14:52:54.329Z,99969.95
2023-10-11T14:54:59.864Z,99973.38
2023-10-11T14:57:08.818Z,99977.44
2023-10-11T14:59:14.541Z,99972.72
2023-10-11T15:01:20.332Z,99976.28
2023-10-11T15:03:25.975Z,99976.3
2023-10-11T15:05:31.422Z,99977.37
2023-10-11T15:07:36.701Z,99972.72
2023-10-11T15:09:42.142Z,99969.72
2023-10-11T15:11:47.884Z,99965.47
2023-10-11T15:13:53.433Z,99967.14
2023-10-11T15:15:58.876Z,99968.84
2023-10-11T15:18:05.485Z,99966.92
2023-10-11T15:20:11.171Z,99973.39
2023-10-11T15:22:16.717Z,99971.36
2023-10-11T15:24:22.453Z,99976.1
2023-10-11T15:26:27.949Z,99964.53
2023-10-11T15:28:33.454Z,99967.77
2023-10-11T15:30:38.908Z,99966.94
2023-10-11T15:32:44.653Z,99965.45
2023-10-11T15:34:50.087Z,99969.45
2023-10-11T15:36:55.673Z,99974.47
2023-10-11T15:39:00.952Z,99971.3
2023-10-11T15:41:06.343Z,99971.55
2023-10-11T15:43:11.736Z,99974.63
2023-10-11T15:45:17.233Z,99972.5
2023-10-11T15:47:24.398Z,99962.73
2023-10-11T15:49:30.714Z,99960.97
2023-10-11T15:51:36.482Z,99957.95
2023-10-11T15:53:42.012Z,99956.95
2023-10-11T15:55:47.557Z,99963.99
2023-10-11T15:57:52.883Z,99967.69
2023-10-11T15:59:58.279Z,99967.14
2023-10-11T16:02:03.764Z,99957.51
2023-10-11T16:04:09.692Z,99959.41
2023-10-11T16:06:15.586Z,99955.17
2023-10-11T16:08:21.024Z,99957.53
2023-10-11T16:10:26.552Z,99938.2
2023-10-11T16:12:32.071Z,99961.59
2023-10-11T16:14:37.552Z,99958.61
2023-10-11T16:16:43.012Z,99965.89
2023-10-11T16:18:49.241Z,99969.31
2023-10-11T16:20:54.887Z,99968.2
2023-10-11T16:23:00.417Z,99974.69
2023-10-11T16:25:05.870Z,99970.3
2023-10-11T16:27:11.648Z,99969.19
2023-10-11T16:29:17.402Z,99970.36
2023-10-11T16:31:22.940Z,99971.07
2023-10-11T16:33:28.522Z,99968.33
2023-10-11T16:35:33.990Z,99967.63
2023-10-11T16:37:39.548Z,99968.48
2023-10-11T16:39:45.143Z,99973.92
2023-10-11T16:41:50.583Z,99968.5
2023-10-11T16:43:56.202Z,99969.72
2023-10-11T16:46:04.438Z,99972.95
2023-10-11T16:48:32.120Z,99967.09
2023-10-11T16:50:37.453Z,99973.69
2023-10-11T16:52:43.011Z,99979.25
2023-10-11T16:54:48.501Z,99976.64
2023-10-11T16:56:53.993Z,99978.79
2023-10-11T16:58:59.429Z,99981.2
2023-10-11T17:01:04.968Z,99979.42
2023-10-11T17:03:10.759Z,99976.95
2023-10-11T17:05:16.475Z,99976.66
2023-10-11T17:07:22.192Z,99970.34
2023-10-11T17:09:27.403Z,99976.55
2023-10-11T17:11:32.784Z,99979.33
2023-10-11T17:13:38.241Z,99968.26
2023-10-11T17:15:43.698Z,99967.92
2023-10-11T17:17:49.358Z,99969.95
2023-10-11T17:19:55.917Z,99975
2023-10-11T17:22:01.428Z,99970.95
2023-10-11T17:24:06.854Z,99966.48
2023-10-11T17:26:16.874Z,99967.15
2023-10-11T17:28:22.513Z,99967.94
2023-10-11T17:30:31.294Z,99967.97
2023-10-11T17:32:37.097Z,99965.59
2023-10-11T17:34:42.587Z,99969.5
2023-10-11T17:36:48.612Z,99967.28
2023-10-11T17:38:54.145Z,99972.56
2023-10-11T17:40:59.505Z,99966.81
2023-10-11T17:43:04.900Z,99966.52
2023-10-11T17:45:10.454Z,99965.61
2023-10-11T17:47:16.225Z,99963.92
2023-10-11T17:49:22.120Z,99966.91
2023-10-11T17:51:27.574Z,99967.38
2023-10-11T17:53:33.364Z,99964.76
2023-10-11T17:55:38.801Z,99966.02
2023-10-11T17:57:44.433Z,99966.02
2023-10-11T17:59:49.862Z,99962.52
2023-10-11T18:01:55.340Z,99961.44
2023-10-11T18:04:00.798Z,99962.22
2023-10-11T18:06:06.614Z,99957.92
2023-10-11T18:08:12.386Z,99959.09
2023-10-11T18:10:18.022Z,99956.23
2023-10-11T18:12:23.724Z,99955.52
2023-10-11T18:14:29.384Z,99950.41
2023-10-11T18:16:34.724Z,99953.18
2023-10-11T18:18:40.111Z,99956.95
2023-10-11T18:20:45.488Z,99951.59
2023-10-11T18:22:50.867Z,99948.02
2023-10-11T18:24:56.338Z,99949.7
2023-10-11T18:27:01.696Z,99946.25
2023-10-11T18:29:07.007Z,99948.8
2023-10-11T18:31:14.921Z,99950.13
2023-10-11T18:33:20.446Z,99946.18
2023-10-11T18:35:26.089Z,99947.44
2023-10-11T18:37:31.510Z,99944.63
2023-10-11T18:39:37.057Z,99947.63
2023-10-11T18:41:42.503Z,99942.13
2023-10-11T18:43:48.165Z,99945.8
2023-10-11T18:45:53.745Z,99944.22
2023-10-11T18:47:59.792Z,99949.09
2023-10-11T18:50:05.466Z,99946.29
2023-10-11T18:52:11.110Z,99946.86
2023-10-11T18:54:16.964Z,99945.56
2023-10-11T18:56:22.698Z,99942.84
2023-10-11T18:58:28.035Z,99944.97
2023-10-11T19:00:33.611Z,99942.58
2023-10-11T19:02:39.277Z,99943.77
2023-10-11T19:04:44.990Z,99945.39
2023-10-11T19:06:50.669Z,99944.05
2023-10-11T19:08:56.531Z,99945.6
2023-10-11T19:11:02.115Z,99938.84
2023-10-11T19:13:07.704Z,99937.22
2023-10-11T19:15:13.114Z,99938.75
2023-10-11T19:17:18.738Z,99945.7
2023-10-11T19:19:24.185Z,99948.55
2023-10-11T19:21:29.622Z,99941.25
2023-10-11T19:23:35.044Z,99943.34
2023-10-11T19:25:40.516Z,99945.09
2023-10-11T19:27:46.074Z,99944.8
2023-10-11T19:29:51.599Z,99946.16
2023-10-11T19:31:57.198Z,99946.41
2023-10-11T19:34:02.477Z,99949.53
2023-10-11T19:36:07.850Z,99946.86
2023-10-11T19:38:13.211Z,99945.52
2023-10-11T19:40:20.305Z,99945.63
2023-10-11T19:42:26.005Z,99944.88
2023-10-11T19:44:31.424Z,99948.91
2023-10-11T19:46:36.973Z,99946.73
2023-10-11T19:48:42.756Z,99944.82
2023-10-11T19:50:48.350Z,99938.84
2023-10-11T19:52:53.888Z,99954.86
2023-10-11T19:54:59.328Z,99954.98
2023-10-11T19:57:04.672Z,99955.34
2023-10-11T19:59:10.013Z,99956.73
2023-10-11T20:01:15.458Z,99956.34
2023-10-11T20:03:21.104Z,99953.58
2023-10-11T20:05:26.555Z,99949.27
2023-10-11T20:07:31.969Z,99954.45
2023-10-11T20:09:37.345Z,99954.13
2023-10-11T20:11:42.809Z,99954.02
2023-10-11T20:13:48.105Z,99949.3
2023-10-11T20:15:53.674Z,99952.2
2023-10-11T20:17:59.401Z,99951.63
2023-10-11T20:20:04.755Z,99952.34
2023-10-11T20:22:10.224Z,99952.91
2023-10-11T20:24:15.536Z,99948.98
2023-10-11T20:26:21.052Z,99947.36
2023-10-11T20:28:26.512Z,99946.41
2023-10-11T20:30:31.853Z,99947.76
2023-10-11T20:32:37.357Z,99945.69
2023-10-11T20:34:43.280Z,99949.34
2023-10-11T20:36:48.922Z,99952.78
2023-10-11T20:38:54.500Z,99949.19
2023-10-11T20:41:00.061Z,99944.41
2023-10-11T20:43:05.480Z,99948.55
2023-10-11T20:45:10.944Z,99950.34
2023-10-11T20:47:16.226Z,99949.48
2023-10-11T20:49:21.593Z,99942.36
2023-10-11T20:51:26.943Z,99938.55
2023-10-11T20:53:32.311Z,99939.69
2023-10-11T20:55:37.667Z,99930.95
2023-10-11T20:57:42.976Z,99936.47
2023-10-11T20:59:48.558Z,99933.31
2023-10-11T21:01:53.930Z,99935.89
2023-10-11T21:03:59.597Z,99926.36
2023-10-11T21:06:05.063Z,99927.02
2023-10-11T21:08:10.808Z,99923.8
2023-10-11T21:10:16.339Z,99928.23
2023-10-11T21:12:21.659Z,99921.24
2023-10-11T21:14:27.444Z,99921.95
2023-10-11T21:16:33.023Z,99919.55
2023-10-11T21:18:39.432Z,99916.34
2023-10-11T21:20:47.541Z,99910.64
2023-10-11T21:22:52.815Z,99912.5
2023-10-11T21:24:58.358Z,99909.59
2023-10-11T21:27:03.962Z,99912.81
2023-10-11T21:29:09.296Z,99902.97
2023-10-11T21:31:15.076Z,99901.44
2023-10-11T21:33:21.104Z,99898.39
2023-10-11T21:35:26.640Z,99897.03
2023-10-11T21:37:31.979Z,99896.08
2023-10-11T21:39:37.389Z,99894.83
2023-10-11T21:41:42.962Z,99892.89
2023-10-11T21:43:48.363Z,99893.3
2023-10-11T21:45:53.796Z,99888.03
2023-10-11T21:47:59.313Z,99888.09
2023-10-11T21:50:04.722Z,99889.69
2023-10-11T21:52:10.187Z,99884.77
2023-10-11T21:54:15.659Z,99885.5
2023-10-11T21:56:21.264Z,99882.14
2023-10-11T21:58:26.590Z,99881.13
2023-10-11T22:00:34.335Z,99878.98
2023-10-11T22:02:40.000Z,99876.81
2023-10-11T22:04:45.450Z,99874.42
2023-10-11T22:06:50.958Z,99872.28
2023-10-11T22:08:56.358Z,99875.11
2023-10-11T22:11:01.790Z,99873.23
2023-10-11T22:13:07.042Z,99871.61
2023-10-11T22:15:12.489Z,99866.61
2023-10-11T22:17:17.925Z,99861.05
2023-10-11T22:19:23.392Z,99863.98
2023-10-11T22:21:28.672Z,99863.23
2023-10-11T22:23:34.204Z,99859.29
2023-10-11T22:25:39.532Z,99860.88
2023-10-11T22:27:45.028Z,99860.37
2023-10-11T22:29:50.465Z,99856.93
2023-10-11T22:31:55.904Z,99861.05
2023-10-11T22:34:01.415Z,99864.27
2023-10-11T22:36:06.834Z,99858.94
2023-10-11T22:38:12.216Z,99862.11
2023-10-11T22:40:17.695Z,99865.18
2023-10-11T22:42:23.373Z,99863.77
2023-10-11T22:44:28.950Z,99862.06
2023-10-11T22:46:34.430Z,99859.12
2023-10-11T22:48:39.931Z,99860.36
2023-10-11T22:50:45.484Z,99857.37
2023-10-11T22:52:51.022Z,99860.48
2023-10-11T22:54:56.982Z,99854.95
2023-10-11T22:57:02.518Z,99857.13
2023-10-11T22:59:07.744Z,99858.91
2023-10-11T23:01:13.093Z,99861.02
2023-10-11T23:03:19.191Z,99859.14
2023-10-11T23:05:24.841Z,99855.84
2023-10-11T23:07:30.228Z,99859.35
2023-10-11T23:09:35.881Z,99858.69
2023-10-11T23:11:41.304Z,99855.46
2023-10-11T23:13:46.604Z,99854.77
2023-10-11T23:15:54.483Z,99852.13
2023-10-11T23:18:00.676Z,99845.78
2023-10-11T23:20:06.242Z,99852.63
2023-10-11T23:22:11.584Z,99845.92
2023-10-11T23:24:17.133Z,99848.05
2023-10-11T23:26:23.076Z,99843.78
2023-10-11T23:28:28.415Z,99848.52
2023-10-11T23:30:34.015Z,99847.18
2023-10-11T23:32:39.618Z,99849.13
2023-10-11T23:34:45.039Z,99842.96
2023-10-11T23:36:50.627Z,99842.39
2023-10-11T23:38:55.820Z,99838.91
2023-10-11T23:41:01.271Z,99840.34
2023-10-11T23:43:06.588Z,99833.8
2023-10-11T23:45:11.935Z,99832.3
2023-10-11T23:47:17.393Z,99830.96
2023-10-11T23:49:22.827Z,99833.97
2023-10-11T23:51:28.258Z,99836.19
2023-10-11T23:53:33.708Z,99830.97
2023-10-11T23:55:39.139Z,99834.06
2023-10-11T23:57:44.623Z,99831.33
2023-10-11T23:59:50.123Z,99827.21
